sensor_id;sensor_type;location;lat;lon;timestamp;P1;durP1;ratioP1;P2;durP2;ratioP2
46481;SDS011;32193;51.446;6.792;2022-07-18T00:01:45;8.07;;;1.98;;
46481;SDS011;32193;51.446;6.792;2022-07-18T00:04:10;8.15;;;2.22;;
46481;SDS011;32193;51.446;6.792;2022-07-18T00:06:36;9.23;;;2.20;;
46481;SDS011;32193;51.446;6.792;2022-07-18T00:09:02;6.05;;;2.22;;
46481;SDS011;32193;51.446;6.792;2022-07-18T00:11:29;9.10;;;2.45;;
46481;SDS011;32193;51.446;6.792;2022-07-18T00:13:55;8.68;;;2.42;;
46481;SDS011;32193;51.446;6.792;2022-07-18T00:16:21;10.65;;;2.63;;
46481;SDS011;32193;51.446;6.792;2022-07-18T00:18:48;7.95;;;1.90;;
46481;SDS011;32193;51.446;6.792;2022-07-18T00:21:14;6.78;;;1.80;;
46481;SDS011;32193;51.446;6.792;2022-07-18T00:23:40;8.82;;;1.95;;
46481;SDS011;32193;51.446;6.792;2022-07-18T00:26:06;6.82;;;1.90;;
46481;SDS011;32193;51.446;6.792;2022-07-18T00:28:32;8.60;;;2.03;;
46481;SDS011;32193;51.446;6.792;2022-07-18T00:30:57;10.75;;;2.40;;
46481;SDS011;32193;51.446;6.792;2022-07-18T00:33:23;5.35;;;1.70;;
46481;SDS011;32193;51.446;6.792;2022-07-18T00:35:49;7.22;;;2.00;;
46481;SDS011;32193;51.446;6.792;2022-07-18T00:38:15;11.30;;;2.92;;
46481;SDS011;32193;51.446;6.792;2022-07-18T00:40:40;10.20;;;2.75;;
46481;SDS011;32193;51.446;6.792;2022-07-18T00:43:06;15.25;;;2.78;;
46481;SDS011;32193;51.446;6.792;2022-07-18T00:45:32;6.97;;;2.30;;
46481;SDS011;32193;51.446;6.792;2022-07-18T00:47:58;9.32;;;3.00;;
46481;SDS011;32193;51.446;6.792;2022-07-18T00:50:24;11.48;;;2.80;;
46481;SDS011;32193;51.446;6.792;2022-07-18T00:52:50;5.78;;;2.10;;
46481;SDS011;32193;51.446;6.792;2022-07-18T00:55:16;6.43;;;1.98;;
46481;SDS011;32193;51.446;6.792;2022-07-18T00:57:42;11.50;;;2.95;;
46481;SDS011;32193;51.446;6.792;2022-07-18T01:00:09;6.75;;;1.95;;
46481;SDS011;32193;51.446;6.792;2022-07-18T01:02:55;6.93;;;2.05;;
46481;SDS011;32193;51.446;6.792;2022-07-18T01:05:21;6.47;;;2.47;;
46481;SDS011;32193;51.446;6.792;2022-07-18T01:07:47;5.97;;;2.22;;
46481;SDS011;32193;51.446;6.792;2022-07-18T01:10:13;9.55;;;2.55;;
46481;SDS011;32193;51.446;6.792;2022-07-18T01:12:39;8.07;;;2.20;;
46481;SDS011;32193;51.446;6.792;2022-07-18T01:15:05;8.55;;;1.75;;
46481;SDS011;32193;51.446;6.792;2022-07-18T01:17:31;10.73;;;2.42;;
46481;SDS011;32193;51.446;6.792;2022-07-18T01:19:57;10.38;;;2.70;;
46481;SDS011;32193;51.446;6.792;2022-07-18T01:22:22;6.65;;;2.35;;
46481;SDS011;32193;51.446;6.792;2022-07-18T01:24:48;6.85;;;2.17;;
46481;SDS011;32193;51.446;6.792;2022-07-18T01:27:20;7.60;;;2.20;;
46481;SDS011;32193;51.446;6.792;2022-07-18T01:29:47;8.50;;;2.78;;
46481;SDS011;32193;51.446;6.792;2022-07-18T01:32:13;8.85;;;2.17;;
46481;SDS011;32193;51.446;6.792;2022-07-18T01:34:40;6.85;;;2.40;;
46481;SDS011;32193;51.446;6.792;2022-07-18T01:37:06;7.80;;;2.17;;
46481;SDS011;32193;51.446;6.792;2022-07-18T01:39:32;8.95;;;2.00;;
46481;SDS011;32193;51.446;6.792;2022-07-18T01:42:00;8.02;;;1.92;;
46481;SDS011;32193;51.446;6.792;2022-07-18T01:44:27;9.15;;;2.38;;
46481;SDS011;32193;51.446;6.792;2022-07-18T01:46:53;9.63;;;2.58;;
46481;SDS011;32193;51.446;6.792;2022-07-18T01:49:19;7.75;;;2.17;;
46481;SDS011;32193;51.446;6.792;2022-07-18T01:51:46;12.25;;;2.45;;
46481;SDS011;32193;51.446;6.792;2022-07-18T01:54:12;6.65;;;1.88;;
46481;SDS011;32193;51.446;6.792;2022-07-18T01:56:38;6.75;;;1.98;;
46481;SDS011;32193;51.446;6.792;2022-07-18T01:59:04;10.35;;;2.50;;
46481;SDS011;32193;51.446;6.792;2022-07-18T02:01:29;9.75;;;2.20;;
46481;SDS011;32193;51.446;6.792;2022-07-18T02:03:55;9.55;;;2.97;;
46481;SDS011;32193;51.446;6.792;2022-07-18T02:06:21;6.53;;;1.85;;
46481;SDS011;32193;51.446;6.792;2022-07-18T02:08:47;8.13;;;2.38;;
46481;SDS011;32193;51.446;6.792;2022-07-18T02:11:12;9.32;;;2.08;;
46481;SDS011;32193;51.446;6.792;2022-07-18T02:13:38;10.35;;;2.25;;
46481;SDS011;32193;51.446;6.792;2022-07-18T02:16:04;8.40;;;2.67;;
46481;SDS011;32193;51.446;6.792;2022-07-18T02:18:30;10.32;;;2.60;;
46481;SDS011;32193;51.446;6.792;2022-07-18T02:20:59;6.85;;;2.28;;
46481;SDS011;32193;51.446;6.792;2022-07-18T02:23:25;8.57;;;2.60;;
46481;SDS011;32193;51.446;6.792;2022-07-18T02:25:52;6.25;;;1.77;;
46481;SDS011;32193;51.446;6.792;2022-07-18T02:28:18;11.95;;;3.30;;
46481;SDS011;32193;51.446;6.792;2022-07-18T02:30:44;8.43;;;2.08;;
46481;SDS011;32193;51.446;6.792;2022-07-18T02:33:09;8.05;;;2.33;;
46481;SDS011;32193;51.446;6.792;2022-07-18T02:35:35;7.78;;;1.83;;
46481;SDS011;32193;51.446;6.792;2022-07-18T02:38:01;6.05;;;1.83;;
46481;SDS011;32193;51.446;6.792;2022-07-18T02:40:27;6.38;;;1.73;;
46481;SDS011;32193;51.446;6.792;2022-07-18T02:42:53;19.73;;;3.20;;
46481;SDS011;32193;51.446;6.792;2022-07-18T02:45:19;15.88;;;2.65;;
46481;SDS011;32193;51.446;6.792;2022-07-18T02:47:44;12.43;;;2.00;;
46481;SDS011;32193;51.446;6.792;2022-07-18T02:50:11;9.82;;;2.05;;
46481;SDS011;32193;51.446;6.792;2022-07-18T02:52:38;14.70;;;2.63;;
46481;SDS011;32193;51.446;6.792;2022-07-18T02:55:05;11.27;;;2.10;;
46481;SDS011;32193;51.446;6.792;2022-07-18T02:57:31;9.88;;;2.30;;
46481;SDS011;32193;51.446;6.792;2022-07-18T02:59:56;12.10;;;2.65;;
46481;SDS011;32193;51.446;6.792;2022-07-18T03:02:22;11.02;;;2.45;;
46481;SDS011;32193;51.446;6.792;2022-07-18T03:04:48;8.48;;;2.47;;
46481;SDS011;32193;51.446;6.792;2022-07-18T03:07:14;7.40;;;2.40;;
46481;SDS011;32193;51.446;6.792;2022-07-18T03:09:40;9.35;;;2.20;;
46481;SDS011;32193;51.446;6.792;2022-07-18T03:12:06;19.92;;;3.60;;
46481;SDS011;32193;51.446;6.792;2022-07-18T03:14:32;10.48;;;2.70;;
46481;SDS011;32193;51.446;6.792;2022-07-18T03:16:58;12.98;;;3.10;;
46481;SDS011;32193;51.446;6.792;2022-07-18T03:19:25;7.28;;;2.35;;
46481;SDS011;32193;51.446;6.792;2022-07-18T03:21:50;8.77;;;2.17;;
46481;SDS011;32193;51.446;6.792;2022-07-18T03:24:17;10.68;;;2.35;;
46481;SDS011;32193;51.446;6.792;2022-07-18T03:26:42;6.93;;;2.30;;
46481;SDS011;32193;51.446;6.792;2022-07-18T03:29:09;9.90;;;2.25;;
46481;SDS011;32193;51.446;6.792;2022-07-18T03:31:35;10.32;;;2.40;;
46481;SDS011;32193;51.446;6.792;2022-07-18T03:34:01;7.60;;;2.00;;
46481;SDS011;32193;51.446;6.792;2022-07-18T03:36:27;10.00;;;2.50;;
46481;SDS011;32193;51.446;6.792;2022-07-18T03:38:53;12.70;;;2.05;;
46481;SDS011;32193;51.446;6.792;2022-07-18T03:41:19;7.38;;;1.70;;
46481;SDS011;32193;51.446;6.792;2022-07-18T03:43:44;9.82;;;2.17;;
46481;SDS011;32193;51.446;6.792;2022-07-18T03:46:10;8.38;;;2.08;;
46481;SDS011;32193;51.446;6.792;2022-07-18T03:48:36;10.00;;;2.08;;
46481;SDS011;32193;51.446;6.792;2022-07-18T03:51:02;11.43;;;2.35;;
46481;SDS011;32193;51.446;6.792;2022-07-18T03:53:29;8.73;;;2.03;;
46481;SDS011;32193;51.446;6.792;2022-07-18T03:55:55;7.25;;;1.95;;
46481;SDS011;32193;51.446;6.792;2022-07-18T03:58:21;8.13;;;2.35;;
46481;SDS011;32193;51.446;6.792;2022-07-18T04:00:47;10.18;;;2.42;;
46481;SDS011;32193;51.446;6.792;2022-07-18T04:03:13;10.45;;;2.67;;
46481;SDS011;32193;51.446;6.792;2022-07-18T04:05:39;9.13;;;2.33;;
46481;SDS011;32193;51.446;6.792;2022-07-18T04:08:05;9.27;;;2.10;;
46481;SDS011;32193;51.446;6.792;2022-07-18T04:10:31;13.77;;;2.53;;
46481;SDS011;32193;51.446;6.792;2022-07-18T04:12:57;15.27;;;2.40;;
46481;SDS011;32193;51.446;6.792;2022-07-18T04:15:24;10.95;;;2.58;;
46481;SDS011;32193;51.446;6.792;2022-07-18T04:17:50;12.25;;;2.72;;
46481;SDS011;32193;51.446;6.792;2022-07-18T04:20:17;7.25;;;2.40;;
46481;SDS011;32193;51.446;6.792;2022-07-18T04:25:13;9.63;;;2.30;;
46481;SDS011;32193;51.446;6.792;2022-07-18T04:27:39;8.15;;;2.47;;
46481;SDS011;32193;51.446;6.792;2022-07-18T04:30:05;10.65;;;2.30;;
46481;SDS011;32193;51.446;6.792;2022-07-18T04:32:31;12.40;;;2.70;;
46481;SDS011;32193;51.446;6.792;2022-07-18T04:34:57;9.15;;;2.75;;
46481;SDS011;32193;51.446;6.792;2022-07-18T04:37:22;12.05;;;2.08;;
46481;SDS011;32193;51.446;6.792;2022-07-18T04:39:48;10.43;;;2.50;;
46481;SDS011;32193;51.446;6.792;2022-07-18T04:42:14;10.30;;;2.58;;
46481;SDS011;32193;51.446;6.792;2022-07-18T04:44:40;10.18;;;2.05;;
46481;SDS011;32193;51.446;6.792;2022-07-18T04:47:06;7.65;;;1.95;;
46481;SDS011;32193;51.446;6.792;2022-07-18T04:49:31;10.10;;;2.10;;
46481;SDS011;32193;51.446;6.792;2022-07-18T04:51:57;5.85;;;1.60;;
46481;SDS011;32193;51.446;6.792;2022-07-18T04:54:23;9.77;;;2.00;;
46481;SDS011;32193;51.446;6.792;2022-07-18T04:56:49;9.18;;;2.63;;
46481;SDS011;32193;51.446;6.792;2022-07-18T04:59:15;7.03;;;1.75;;
46481;SDS011;32193;51.446;6.792;2022-07-18T05:01:40;10.13;;;2.30;;
46481;SDS011;32193;51.446;6.792;2022-07-18T05:04:06;6.78;;;2.25;;
46481;SDS011;32193;51.446;6.792;2022-07-18T05:06:31;13.95;;;2.55;;
46481;SDS011;32193;51.446;6.792;2022-07-18T05:08:57;12.68;;;2.30;;
46481;SDS011;32193;51.446;6.792;2022-07-18T05:11:22;15.38;;;2.65;;
46481;SDS011;32193;51.446;6.792;2022-07-18T05:13:48;14.95;;;2.92;;
46481;SDS011;32193;51.446;6.792;2022-07-18T05:16:14;14.02;;;2.58;;
46481;SDS011;32193;51.446;6.792;2022-07-18T05:18:40;13.27;;;2.65;;
46481;SDS011;32193;51.446;6.792;2022-07-18T05:21:06;17.95;;;3.25;;
46481;SDS011;32193;51.446;6.792;2022-07-18T05:23:32;14.70;;;2.97;;
46481;SDS011;32193;51.446;6.792;2022-07-18T05:25:58;19.42;;;3.13;;
46481;SDS011;32193;51.446;6.792;2022-07-18T05:28:24;23.65;;;3.38;;
46481;SDS011;32193;51.446;6.792;2022-07-18T05:30:49;14.65;;;2.50;;
46481;SDS011;32193;51.446;6.792;2022-07-18T05:33:15;11.27;;;2.30;;
46481;SDS011;32193;51.446;6.792;2022-07-18T05:35:41;12.18;;;2.85;;
46481;SDS011;32193;51.446;6.792;2022-07-18T05:38:07;22.20;;;3.28;;
46481;SDS011;32193;51.446;6.792;2022-07-18T05:40:33;18.25;;;2.90;;
46481;SDS011;32193;51.446;6.792;2022-07-18T05:42:59;20.30;;;3.25;;
46481;SDS011;32193;51.446;6.792;2022-07-18T05:45:25;18.42;;;2.90;;
46481;SDS011;32193;51.446;6.792;2022-07-18T05:47:51;13.38;;;3.15;;
46481;SDS011;32193;51.446;6.792;2022-07-18T05:50:17;18.05;;;3.00;;
46481;SDS011;32193;51.446;6.792;2022-07-18T05:52:43;20.45;;;3.30;;
46481;SDS011;32193;51.446;6.792;2022-07-18T05:55:09;15.82;;;3.03;;
46481;SDS011;32193;51.446;6.792;2022-07-18T05:57:35;21.98;;;3.28;;
46481;SDS011;32193;51.446;6.792;2022-07-18T06:00:03;15.27;;;3.55;;
46481;SDS011;32193;51.446;6.792;2022-07-18T06:02:29;15.18;;;2.50;;
46481;SDS011;32193;51.446;6.792;2022-07-18T06:04:54;8.98;;;2.05;;
46481;SDS011;32193;51.446;6.792;2022-07-18T06:07:20;7.15;;;1.55;;
46481;SDS011;32193;51.446;6.792;2022-07-18T06:09:46;8.10;;;1.73;;
46481;SDS011;32193;51.446;6.792;2022-07-18T06:12:12;8.00;;;1.52;;
46481;SDS011;32193;51.446;6.792;2022-07-18T06:14:38;7.18;;;1.70;;
46481;SDS011;32193;51.446;6.792;2022-07-18T06:17:04;9.30;;;1.70;;
46481;SDS011;32193;51.446;6.792;2022-07-18T06:19:30;8.18;;;1.80;;
46481;SDS011;32193;51.446;6.792;2022-07-18T06:21:55;5.72;;;1.65;;
46481;SDS011;32193;51.446;6.792;2022-07-18T06:24:21;10.15;;;1.40;;
46481;SDS011;32193;51.446;6.792;2022-07-18T06:26:46;6.38;;;1.10;;
46481;SDS011;32193;51.446;6.792;2022-07-18T06:29:14;5.25;;;1.52;;
46481;SDS011;32193;51.446;6.792;2022-07-18T06:31:40;7.15;;;1.50;;
46481;SDS011;32193;51.446;6.792;2022-07-18T06:34:06;6.68;;;1.23;;
46481;SDS011;32193;51.446;6.792;2022-07-18T06:36:32;6.35;;;1.23;;
46481;SDS011;32193;51.446;6.792;2022-07-18T06:38:58;7.20;;;1.40;;
46481;SDS011;32193;51.446;6.792;2022-07-18T06:41:24;5.43;;;1.10;;
46481;SDS011;32193;51.446;6.792;2022-07-18T06:43:49;6.00;;;1.42;;
46481;SDS011;32193;51.446;6.792;2022-07-18T06:46:15;6.03;;;1.33;;
46481;SDS011;32193;51.446;6.792;2022-07-18T06:48:40;9.70;;;1.90;;
46481;SDS011;32193;51.446;6.792;2022-07-18T06:51:07;8.55;;;1.50;;
46481;SDS011;32193;51.446;6.792;2022-07-18T06:53:33;11.18;;;1.83;;
46481;SDS011;32193;51.446;6.792;2022-07-18T06:55:59;6.63;;;1.40;;
46481;SDS011;32193;51.446;6.792;2022-07-18T06:58:27;9.43;;;1.80;;
46481;SDS011;32193;51.446;6.792;2022-07-18T07:00:55;8.30;;;2.47;;
46481;SDS011;32193;51.446;6.792;2022-07-18T07:03:21;7.15;;;1.20;;
46481;SDS011;32193;51.446;6.792;2022-07-18T07:05:47;11.70;;;1.60;;
46481;SDS011;32193;51.446;6.792;2022-07-18T07:08:12;8.18;;;1.42;;
46481;SDS011;32193;51.446;6.792;2022-07-18T07:10:38;5.82;;;1.10;;
46481;SDS011;32193;51.446;6.792;2022-07-18T07:13:04;7.13;;;1.30;;
46481;SDS011;32193;51.446;6.792;2022-07-18T07:15:30;5.53;;;1.20;;
46481;SDS011;32193;51.446;6.792;2022-07-18T07:17:56;3.70;;;1.10;;
46481;SDS011;32193;51.446;6.792;2022-07-18T07:20:21;6.00;;;1.20;;
46481;SDS011;32193;51.446;6.792;2022-07-18T07:22:48;4.82;;;1.45;;
46481;SDS011;32193;51.446;6.792;2022-07-18T07:25:24;8.30;;;1.52;;
46481;SDS011;32193;51.446;6.792;2022-07-18T07:27:51;7.18;;;1.42;;
46481;SDS011;32193;51.446;6.792;2022-07-18T07:30:18;7.25;;;1.10;;
46481;SDS011;32193;51.446;6.792;2022-07-18T07:32:44;7.93;;;1.58;;
46481;SDS011;32193;51.446;6.792;2022-07-18T07:35:15;5.93;;;1.42;;
46481;SDS011;32193;51.446;6.792;2022-07-18T07:37:43;9.32;;;2.10;;
46481;SDS011;32193;51.446;6.792;2022-07-18T07:40:11;10.57;;;1.52;;
46481;SDS011;32193;51.446;6.792;2022-07-18T07:42:38;9.75;;;1.30;;
46481;SDS011;32193;51.446;6.792;2022-07-18T07:45:04;8.57;;;1.50;;
46481;SDS011;32193;51.446;6.792;2022-07-18T07:47:30;6.35;;;1.38;;
46481;SDS011;32193;51.446;6.792;2022-07-18T07:49:57;9.23;;;1.58;;
46481;SDS011;32193;51.446;6.792;2022-07-18T07:52:23;10.20;;;1.55;;
46481;SDS011;32193;51.446;6.792;2022-07-18T07:54:50;5.35;;;1.15;;
46481;SDS011;32193;51.446;6.792;2022-07-18T07:57:16;4.35;;;1.20;;
46481;SDS011;32193;51.446;6.792;2022-07-18T07:59:42;6.57;;;1.30;;
46481;SDS011;32193;51.446;6.792;2022-07-18T08:02:08;6.40;;;1.20;;
46481;SDS011;32193;51.446;6.792;2022-07-18T08:04:34;7.65;;;1.35;;
46481;SDS011;32193;51.446;6.792;2022-07-18T08:07:00;8.35;;;1.30;;
46481;SDS011;32193;51.446;6.792;2022-07-18T08:09:26;6.45;;;1.50;;
46481;SDS011;32193;51.446;6.792;2022-07-18T08:11:52;5.80;;;1.30;;
46481;SDS011;32193;51.446;6.792;2022-07-18T08:14:18;7.40;;;1.10;;
46481;SDS011;32193;51.446;6.792;2022-07-18T08:16:44;9.25;;;1.45;;
46481;SDS011;32193;51.446;6.792;2022-07-18T08:19:10;5.40;;;1.13;;
46481;SDS011;32193;51.446;6.792;2022-07-18T08:21:36;5.25;;;1.10;;
46481;SDS011;32193;51.446;6.792;2022-07-18T08:24:01;6.60;;;1.38;;
46481;SDS011;32193;51.446;6.792;2022-07-18T08:26:27;4.95;;;1.30;;
46481;SDS011;32193;51.446;6.792;2022-07-18T08:28:53;8.07;;;1.20;;
46481;SDS011;32193;51.446;6.792;2022-07-18T08:31:19;4.63;;;1.40;;
46481;SDS011;32193;51.446;6.792;2022-07-18T08:33:45;5.15;;;1.23;;
46481;SDS011;32193;51.446;6.792;2022-07-18T08:36:10;7.07;;;1.77;;
46481;SDS011;32193;51.446;6.792;2022-07-18T08:38:36;6.30;;;1.30;;
46481;SDS011;32193;51.446;6.792;2022-07-18T08:41:02;6.40;;;1.40;;
46481;SDS011;32193;51.446;6.792;2022-07-18T08:43:28;6.22;;;1.25;;
46481;SDS011;32193;51.446;6.792;2022-07-18T08:45:55;7.57;;;1.38;;
46481;SDS011;32193;51.446;6.792;2022-07-18T08:48:22;5.07;;;1.17;;
46481;SDS011;32193;51.446;6.792;2022-07-18T08:50:48;7.80;;;1.17;;
46481;SDS011;32193;51.446;6.792;2022-07-18T08:53:14;8.60;;;1.20;;
46481;SDS011;32193;51.446;6.792;2022-07-18T08:55:41;4.60;;;1.17;;
46481;SDS011;32193;51.446;6.792;2022-07-18T08:58:07;5.35;;;1.25;;
46481;SDS011;32193;51.446;6.792;2022-07-18T09:00:35;11.32;;;1.63;;
46481;SDS011;32193;51.446;6.792;2022-07-18T09:03:01;5.95;;;1.30;;
46481;SDS011;32193;51.446;6.792;2022-07-18T09:05:28;8.18;;;1.50;;
46481;SDS011;32193;51.446;6.792;2022-07-18T09:10:53;8.68;;;1.30;;
46481;SDS011;32193;51.446;6.792;2022-07-18T09:13:39;8.32;;;1.55;;
46481;SDS011;32193;51.446;6.792;2022-07-18T09:21:09;5.45;;;1.35;;
46481;SDS011;32193;51.446;6.792;2022-07-18T09:23:41;11.30;;;1.40;;
46481;SDS011;32193;51.446;6.792;2022-07-18T09:26:08;7.40;;;1.48;;
46481;SDS011;32193;51.446;6.792;2022-07-18T09:28:47;8.30;;;1.48;;
46481;SDS011;32193;51.446;6.792;2022-07-18T09:31:18;10.77;;;1.70;;
46481;SDS011;32193;51.446;6.792;2022-07-18T09:36:54;9.00;;;1.40;;
46481;SDS011;32193;51.446;6.792;2022-07-18T09:39:21;7.32;;;1.70;;
46481;SDS011;32193;51.446;6.792;2022-07-18T09:41:46;11.98;;;1.95;;
46481;SDS011;32193;51.446;6.792;2022-07-18T09:44:16;4.20;;;1.15;;
46481;SDS011;32193;51.446;6.792;2022-07-18T09:47:01;10.98;;;1.50;;
46481;SDS011;32193;51.446;6.792;2022-07-18T09:49:28;7.93;;;1.60;;
46481;SDS011;32193;51.446;6.792;2022-07-18T09:52:05;10.35;;;1.65;;
46481;SDS011;32193;51.446;6.792;2022-07-18T09:54:49;11.40;;;1.80;;
46481;SDS011;32193;51.446;6.792;2022-07-18T09:57:25;11.07;;;1.80;;
46481;SDS011;32193;51.446;6.792;2022-07-18T09:59:51;7.50;;;1.50;;
46481;SDS011;32193;51.446;6.792;2022-07-18T10:02:18;10.57;;;1.77;;
46481;SDS011;32193;51.446;6.792;2022-07-18T10:04:44;5.05;;;1.60;;
46481;SDS011;32193;51.446;6.792;2022-07-18T10:07:11;8.63;;;1.60;;
46481;SDS011;32193;51.446;6.792;2022-07-18T10:09:37;9.05;;;1.65;;
46481;SDS011;32193;51.446;6.792;2022-07-18T10:12:03;6.90;;;1.80;;
46481;SDS011;32193;51.446;6.792;2022-07-18T10:14:30;8.68;;;1.90;;
46481;SDS011;32193;51.446;6.792;2022-07-18T10:16:57;9.57;;;2.15;;
46481;SDS011;32193;51.446;6.792;2022-07-18T10:19:24;10.57;;;2.03;;
46481;SDS011;32193;51.446;6.792;2022-07-18T10:21:50;7.50;;;1.98;;
46481;SDS011;32193;51.446;6.792;2022-07-18T10:24:18;17.30;;;3.33;;
46481;SDS011;32193;51.446;6.792;2022-07-18T10:26:45;9.85;;;2.40;;
46481;SDS011;32193;51.446;6.792;2022-07-18T10:29:39;8.38;;;1.80;;
46481;SDS011;32193;51.446;6.792;2022-07-18T10:32:31;8.43;;;2.00;;
46481;SDS011;32193;51.446;6.792;2022-07-18T10:34:58;10.63;;;2.05;;
46481;SDS011;32193;51.446;6.792;2022-07-18T10:37:24;11.43;;;1.63;;
46481;SDS011;32193;51.446;6.792;2022-07-18T10:39:50;7.40;;;1.77;;
46481;SDS011;32193;51.446;6.792;2022-07-18T10:42:17;5.93;;;1.90;;
46481;SDS011;32193;51.446;6.792;2022-07-18T10:44:44;13.18;;;1.75;;
46481;SDS011;32193;51.446;6.792;2022-07-18T10:47:11;11.00;;;2.83;;
46481;SDS011;32193;51.446;6.792;2022-07-18T10:57:34;7.03;;;1.92;;
46481;SDS011;32193;51.446;6.792;2022-07-18T11:00:10;7.10;;;1.92;;
46481;SDS011;32193;51.446;6.792;2022-07-18T11:02:45;7.75;;;1.58;;
46481;SDS011;32193;51.446;6.792;2022-07-18T11:15:59;9.50;;;1.77;;
46481;SDS011;32193;51.446;6.792;2022-07-18T11:18:34;9.23;;;2.60;;
46481;SDS011;32193;51.446;6.792;2022-07-18T11:21:21;9.90;;;2.53;;
46481;SDS011;32193;51.446;6.792;2022-07-18T11:23:47;11.00;;;2.58;;
46481;SDS011;32193;51.446;6.792;2022-07-18T11:26:15;7.93;;;2.42;;
46481;SDS011;32193;51.446;6.792;2022-07-18T11:28:57;7.63;;;2.58;;
46481;SDS011;32193;51.446;6.792;2022-07-18T11:31:28;7.28;;;2.38;;
46481;SDS011;32193;51.446;6.792;2022-07-18T11:33:54;7.07;;;1.80;;
46481;SDS011;32193;51.446;6.792;2022-07-18T11:36:21;9.88;;;1.85;;
46481;SDS011;32193;51.446;6.792;2022-07-18T11:38:59;5.80;;;1.65;;
46481;SDS011;32193;51.446;6.792;2022-07-18T11:41:26;5.97;;;2.03;;
46481;SDS011;32193;51.446;6.792;2022-07-18T11:43:53;10.25;;;2.00;;
46481;SDS011;32193;51.446;6.792;2022-07-18T11:46:20;5.88;;;1.42;;
46481;SDS011;32193;51.446;6.792;2022-07-18T11:48:59;7.72;;;1.60;;
46481;SDS011;32193;51.446;6.792;2022-07-18T11:51:33;6.28;;;1.33;;
46481;SDS011;32193;51.446;6.792;2022-07-18T11:54:01;8.95;;;1.50;;
46481;SDS011;32193;51.446;6.792;2022-07-18T11:56:27;7.80;;;2.40;;
46481;SDS011;32193;51.446;6.792;2022-07-18T11:58:53;7.55;;;1.40;;
46481;SDS011;32193;51.446;6.792;2022-07-18T12:01:19;9.60;;;1.88;;
46481;SDS011;32193;51.446;6.792;2022-07-18T12:03:47;12.82;;;2.28;;
46481;SDS011;32193;51.446;6.792;2022-07-18T12:08:40;7.93;;;1.77;;
46481;SDS011;32193;51.446;6.792;2022-07-18T12:11:27;6.90;;;1.80;;
46481;SDS011;32193;51.446;6.792;2022-07-18T12:16:35;10.57;;;1.90;;
46481;SDS011;32193;51.446;6.792;2022-07-18T12:24:26;8.40;;;1.60;;
46481;SDS011;32193;51.446;6.792;2022-07-18T12:35:08;9.55;;;1.95;;
46481;SDS011;32193;51.446;6.792;2022-07-18T12:37:50;9.27;;;1.85;;
46481;SDS011;32193;51.446;6.792;2022-07-18T12:45:39;8.93;;;2.05;;
46481;SDS011;32193;51.446;6.792;2022-07-18T12:48:05;9.60;;;2.20;;
46481;SDS011;32193;51.446;6.792;2022-07-18T12:50:33;7.50;;;2.08;;
46481;SDS011;32193;51.446;6.792;2022-07-18T12:52:59;9.07;;;1.90;;
46481;SDS011;32193;51.446;6.792;2022-07-18T12:55:25;6.78;;;2.20;;
46481;SDS011;32193;51.446;6.792;2022-07-18T12:57:52;9.32;;;2.40;;
46481;SDS011;32193;51.446;6.792;2022-07-18T13:00:17;8.98;;;2.20;;
46481;SDS011;32193;51.446;6.792;2022-07-18T13:02:43;8.52;;;2.08;;
46481;SDS011;32193;51.446;6.792;2022-07-18T13:05:09;8.50;;;2.00;;
46481;SDS011;32193;51.446;6.792;2022-07-18T13:07:35;8.95;;;1.55;;
46481;SDS011;32193;51.446;6.792;2022-07-18T13:10:01;8.00;;;2.05;;
46481;SDS011;32193;51.446;6.792;2022-07-18T13:12:27;11.68;;;2.10;;
46481;SDS011;32193;51.446;6.792;2022-07-18T13:14:52;12.77;;;2.45;;
46481;SDS011;32193;51.446;6.792;2022-07-18T13:17:18;11.75;;;2.20;;
46481;SDS011;32193;51.446;6.792;2022-07-18T13:19:44;14.60;;;2.17;;
46481;SDS011;32193;51.446;6.792;2022-07-18T13:22:10;7.95;;;1.83;;
46481;SDS011;32193;51.446;6.792;2022-07-18T13:24:36;9.25;;;2.08;;
46481;SDS011;32193;51.446;6.792;2022-07-18T13:27:03;6.82;;;2.80;;
46481;SDS011;32193;51.446;6.792;2022-07-18T13:29:29;10.48;;;1.77;;
46481;SDS011;32193;51.446;6.792;2022-07-18T13:31:54;10.27;;;1.73;;
46481;SDS011;32193;51.446;6.792;2022-07-18T13:34:20;10.85;;;1.48;;
46481;SDS011;32193;51.446;6.792;2022-07-18T13:36:47;9.73;;;1.67;;
46481;SDS011;32193;51.446;6.792;2022-07-18T13:39:17;7.60;;;1.40;;
46481;SDS011;32193;51.446;6.792;2022-07-18T13:41:43;7.22;;;1.70;;
46481;SDS011;32193;51.446;6.792;2022-07-18T13:44:09;13.10;;;2.35;;
46481;SDS011;32193;51.446;6.792;2022-07-18T13:46:35;11.75;;;2.15;;
46481;SDS011;32193;51.446;6.792;2022-07-18T13:49:01;7.10;;;1.52;;
46481;SDS011;32193;51.446;6.792;2022-07-18T13:51:26;6.35;;;1.33;;
46481;SDS011;32193;51.446;6.792;2022-07-18T13:53:52;10.85;;;1.67;;
46481;SDS011;32193;51.446;6.792;2022-07-18T13:56:18;7.32;;;2.20;;
46481;SDS011;32193;51.446;6.792;2022-07-18T13:58:44;6.40;;;1.63;;
46481;SDS011;32193;51.446;6.792;2022-07-18T14:01:11;9.73;;;1.92;;
46481;SDS011;32193;51.446;6.792;2022-07-18T14:03:38;6.60;;;1.70;;
46481;SDS011;32193;51.446;6.792;2022-07-18T14:06:04;10.45;;;2.00;;
46481;SDS011;32193;51.446;6.792;2022-07-18T14:08:29;14.40;;;1.70;;
46481;SDS011;32193;51.446;6.792;2022-07-18T14:10:55;12.32;;;1.92;;
46481;SDS011;32193;51.446;6.792;2022-07-18T14:13:21;7.78;;;1.65;;
46481;SDS011;32193;51.446;6.792;2022-07-18T14:15:47;10.98;;;1.98;;
46481;SDS011;32193;51.446;6.792;2022-07-18T14:18:12;10.77;;;2.00;;
46481;SDS011;32193;51.446;6.792;2022-07-18T14:20:38;15.38;;;2.72;;
46481;SDS011;32193;51.446;6.792;2022-07-18T14:23:05;10.77;;;2.08;;
46481;SDS011;32193;51.446;6.792;2022-07-18T14:25:31;10.15;;;1.80;;
46481;SDS011;32193;51.446;6.792;2022-07-18T14:27:57;10.02;;;2.30;;
46481;SDS011;32193;51.446;6.792;2022-07-18T14:30:23;9.10;;;1.75;;
46481;SDS011;32193;51.446;6.792;2022-07-18T14:32:50;12.57;;;2.08;;
46481;SDS011;32193;51.446;6.792;2022-07-18T14:35:16;7.55;;;1.65;;
46481;SDS011;32193;51.446;6.792;2022-07-18T14:37:42;11.32;;;2.03;;
46481;SDS011;32193;51.446;6.792;2022-07-18T14:40:08;10.85;;;1.95;;
46481;SDS011;32193;51.446;6.792;2022-07-18T14:42:34;6.82;;;1.50;;
46481;SDS011;32193;51.446;6.792;2022-07-18T14:45:00;8.70;;;2.00;;
46481;SDS011;32193;51.446;6.792;2022-07-18T14:47:27;11.02;;;1.70;;
46481;SDS011;32193;51.446;6.792;2022-07-18T14:49:56;7.03;;;1.40;;
46481;SDS011;32193;51.446;6.792;2022-07-18T14:52:22;11.07;;;1.95;;
46481;SDS011;32193;51.446;6.792;2022-07-18T14:54:47;7.63;;;2.00;;
46481;SDS011;32193;51.446;6.792;2022-07-18T14:57:13;9.50;;;1.50;;
46481;SDS011;32193;51.446;6.792;2022-07-18T14:59:41;8.52;;;1.58;;
46481;SDS011;32193;51.446;6.792;2022-07-18T15:02:06;7.20;;;1.88;;
46481;SDS011;32193;51.446;6.792;2022-07-18T15:04:32;11.10;;;1.67;;
46481;SDS011;32193;51.446;6.792;2022-07-18T15:06:58;8.20;;;1.63;;
46481;SDS011;32193;51.446;6.792;2022-07-18T15:09:24;9.60;;;1.90;;
46481;SDS011;32193;51.446;6.792;2022-07-18T15:11:50;5.85;;;1.73;;
46481;SDS011;32193;51.446;6.792;2022-07-18T15:14:15;10.43;;;1.80;;
46481;SDS011;32193;51.446;6.792;2022-07-18T15:16:41;8.73;;;1.60;;
46481;SDS011;32193;51.446;6.792;2022-07-18T15:19:07;6.97;;;1.50;;
46481;SDS011;32193;51.446;6.792;2022-07-18T15:21:32;6.25;;;1.58;;
46481;SDS011;32193;51.446;6.792;2022-07-18T15:23:58;10.57;;;1.80;;
46481;SDS011;32193;51.446;6.792;2022-07-18T15:26:24;6.20;;;1.80;;
46481;SDS011;32193;51.446;6.792;2022-07-18T15:28:50;8.23;;;1.35;;
46481;SDS011;32193;51.446;6.792;2022-07-18T15:31:16;10.20;;;1.50;;
46481;SDS011;32193;51.446;6.792;2022-07-18T15:33:42;8.05;;;1.63;;
46481;SDS011;32193;51.446;6.792;2022-07-18T15:36:08;8.05;;;1.33;;
46481;SDS011;32193;51.446;6.792;2022-07-18T15:38:34;9.55;;;1.23;;